Renner Field-Goodland Municipal Airport
KGLD : now visible

Airfield :











YOU CAN JOIN US ON...

 
LOGIN :

Register | Disclaimer

   EN    FR    IT 

 









Legend :    VFR   Marginal VFR   IFR   Intensive IFR   Very Intensive IFR
Visi :
Ceiling :
>= 8 km
>= 3000ft
5 to 8 km
1000 to 3000 ft
1500m to 5 km
500 to 1000 ft
800 to 1500m
200 to 500 ft
< 800m
< 200 ft
Symbols :   Thunderstorms  Fog  Heavy snow  Heavy precipitations  Wind > 20 kt






- Airport Elevation : 3656 ft


KGLD - Renner Field-Goodland Municipal

CURRENT METAR :
  • 080653Z AUTO 30004KT 10SM CLR 00/M03 A2987 RMK AO2 SLP110 T00001033 401611044

EXPIRED METARs :
  • 080553Z AUTO 28005KT 10SM CLR 01/M03 A2989 RMK AO2 SLP119 T00061033 10078 21006 58000
  • 080453Z AUTO 28006KT 10SM CLR 01/M03 A2989 RMK AO2 SLP124 T00061028

TAF KGLD
Valid from the 08 at 06:00 until the 09 at 06:00 UTC


080520Z 0806/0906 VRB06KT P6SM SCT200
FM081900 17012KT P6SM BKN180
TEMPO 0819/0822 18017KT
FM082300 VRB06KT P6SM BKN150
FM090500 34014G22KT P6SM BKN100



MET'MAP, your aeronautical weather chart ! - Copyright ORBIFLY December 2007 - Disclaimer

ORBIFLY MET'MAP TEAM :

Programming & Development : Alexandra Zaïnal
Concept & original design : Baudouin d'Aumeries
Assistance for programming : Marc-Olivier Méhu
Technical & hardware support : Manuel Goepfert

Contact : metmap@orbifly.com




SOURCES & CREDITS :

   NOAA       Earth
Advisory